Exeter, MO (65647)

2:58 PM CDT on March 27, 2015 (GMT -0500)
Sehrbrock house in Purdy | | Change Station
CLOSE
Current Station
Personal Weather Station
Location: Purdy, MO
Elevation: 1490 ft
Nearby Weather Stations

Elev 1490 ft 36.82 °N, 93.92 °W | Updated 3 seconds ago

Partly Cloudy
Partly Cloudy
48.9 °F
Feels Like 46 °F
N
6.9
Wind Variable Wind from WNW
Gusts 6.9 mph

Today
High -- | Low -- °F
--% Chance of Precip.
Yesterday
High -- | Low -- °F
Precip. -- in
7:09 AM 7:33 PM
First Quarter, 55% visible
Pressure 30.18 in
Visibility 10.0 miles
Clouds Scattered Clouds 4300 ft
Windchill 46 °F
Dew Point 28 °F
Humidity 45%
Rainfall 0.02 in
Snow Depth Not available.
UV 6 out of 12
Pollen 8.80 out of 12
Air Quality Not available.
Flu Activity Not available.
METAR KHFJ 271935Z AUTO 33011G18KT 10SM SCT043 06/M03 A3018 RMK AO2

More Conditions Fewer Conditions

Pressure 30.18 in
Visibility 10.0 miles
Clouds Scattered Clouds 4300 ft
Windchill 46 °F
Dew Point 28 °F
Humidity 45%
Rainfall 0.02 in
Snow Depth Not available.
UV 6 out of 12
Pollen 8.80 out of 12
Air Quality Not available.
Flu Activity Not available.
METAR KHFJ 271935Z AUTO 33011G18KT 10SM SCT043 06/M03 A3018 RMK AO2

More Conditions Fewer Conditions

10-Day Weather Forecast

Almanac

Astronomy

Mar. 27, 2015 Rise Set
Actual Time
Civil Twilight
Nautical Twilight
Astronomical Twilight
Moon
Length of Visible Light
Length of Day
Tomorrow will be .
, % of the Moon is Illuminated

Today's Extremes

State Highs State Lows

Community

WunderPhotos

Upload Photos

1,808,799 photos uploaded!

WunderBlogs® & News

Nearby

Air Quality

  Air Quality AQ Index Pollutant
Not available.

Snow Depth

Station Depth Elevation

Earthquake Activity

City Distance Mag. Time & Date
Minimum magnitude displayed is 2.5.

Coastal Water Temperatures

Place Temperature

Stations

Nearby Weather Stations

Station Location Temp. Windchill Dew Point Humidity Wind Precip. Elev Updated Type